sensor_id;sensor_type;location;lat;lon;timestamp;temperature;humidity
51815;DHT22;37874;53.158;6.766;2023-05-10T01:24:09;22.40;57.30
51815;DHT22;37874;53.158;6.766;2023-05-10T01:27:09;22.40;57.20
51815;DHT22;37874;53.158;6.766;2023-05-10T01:30:05;22.40;57.30
51815;DHT22;37874;53.158;6.766;2023-05-10T01:38:06;22.40;57.20
51815;DHT22;37874;53.158;6.766;2023-05-10T01:40:38;22.40;57.30
51815;DHT22;37874;53.158;6.766;2023-05-10T01:43:11;22.40;57.40
51815;DHT22;37874;53.158;6.766;2023-05-10T01:45:47;22.40;57.20
51815;DHT22;37874;53.158;6.766;2023-05-10T01:48:15;22.40;57.20
51815;DHT22;37874;53.158;6.766;2023-05-10T01:50:46;22.40;57.20
51815;DHT22;37874;53.158;6.766;2023-05-10T01:53:16;22.40;57.10
51815;DHT22;37874;53.158;6.766;2023-05-10T01:55:47;22.40;57.10
51815;DHT22;37874;53.158;6.766;2023-05-10T01:58:25;22.40;57.20
51815;DHT22;37874;53.158;6.766;2023-05-10T02:00:54;22.40;57.20
51815;DHT22;37874;53.158;6.766;2023-05-10T02:03:24;22.30;57.10
51815;DHT22;37874;53.158;6.766;2023-05-10T02:05:52;22.30;57.10
51815;DHT22;37874;53.158;6.766;2023-05-10T02:08:19;22.40;57.10
51815;DHT22;37874;53.158;6.766;2023-05-10T02:10:46;22.40;57.10
51815;DHT22;37874;53.158;6.766;2023-05-10T02:13:12;22.40;57.10
51815;DHT22;37874;53.158;6.766;2023-05-10T02:15:39;22.30;57.10
51815;DHT22;37874;53.158;6.766;2023-05-10T02:18:06;22.30;57.10
51815;DHT22;37874;53.158;6.766;2023-05-10T02:20:33;22.30;56.90
51815;DHT22;37874;53.158;6.766;2023-05-10T02:23:02;22.30;56.90
51815;DHT22;37874;53.158;6.766;2023-05-10T02:25:28;22.40;57.10
51815;DHT22;37874;53.158;6.766;2023-05-10T02:27:56;22.30;56.90
51815;DHT22;37874;53.158;6.766;2023-05-10T02:30:23;22.30;56.90
51815;DHT22;37874;53.158;6.766;2023-05-10T02:32:50;22.30;56.70
51815;DHT22;37874;53.158;6.766;2023-05-10T02:35:17;22.30;57.00
51815;DHT22;37874;53.158;6.766;2023-05-10T02:37:43;22.30;56.90
51815;DHT22;37874;53.158;6.766;2023-05-10T02:40:10;22.30;56.70
51815;DHT22;37874;53.158;6.766;2023-05-10T02:42:37;22.30;56.70
51815;DHT22;37874;53.158;6.766;2023-05-10T02:45:10;22.10;56.70
51815;DHT22;37874;53.158;6.766;2023-05-10T02:47:37;22.30;56.80
51815;DHT22;37874;53.158;6.766;2023-05-10T02:50:03;22.20;56.80
51815;DHT22;37874;53.158;6.766;2023-05-10T02:52:33;22.20;56.90
51815;DHT22;37874;53.158;6.766;2023-05-10T02:55:03;22.30;56.90
51815;DHT22;37874;53.158;6.766;2023-05-10T02:57:33;22.20;56.90
51815;DHT22;37874;53.158;6.766;2023-05-10T03:00:00;22.20;56.90
51815;DHT22;37874;53.158;6.766;2023-05-10T03:02:26;22.20;57.00
51815;DHT22;37874;53.158;6.766;2023-05-10T03:04:52;22.20;57.10
51815;DHT22;37874;53.158;6.766;2023-05-10T03:07:18;22.20;57.10
51815;DHT22;37874;53.158;6.766;2023-05-10T03:09:47;22.20;57.10
51815;DHT22;37874;53.158;6.766;2023-05-10T03:15:22;22.20;57.80
51815;DHT22;37874;53.158;6.766;2023-05-10T03:18:09;22.20;57.20
51815;DHT22;37874;53.158;6.766;2023-05-10T03:20:42;22.20;57.10
51815;DHT22;37874;53.158;6.766;2023-05-10T03:23:20;22.20;57.00
51815;DHT22;37874;53.158;6.766;2023-05-10T03:25:48;22.20;57.00
51815;DHT22;37874;53.158;6.766;2023-05-10T03:28:15;22.20;57.00
51815;DHT22;37874;53.158;6.766;2023-05-10T03:30:43;22.20;57.00
51815;DHT22;37874;53.158;6.766;2023-05-10T03:33:09;22.20;57.00
51815;DHT22;37874;53.158;6.766;2023-05-10T03:35:34;22.20;57.00
51815;DHT22;37874;53.158;6.766;2023-05-10T03:38:00;22.10;56.90
51815;DHT22;37874;53.158;6.766;2023-05-10T03:40:27;22.20;57.00
51815;DHT22;37874;53.158;6.766;2023-05-10T03:43:00;22.10;56.90
51815;DHT22;37874;53.158;6.766;2023-05-10T03:45:26;22.10;56.90
51815;DHT22;37874;53.158;6.766;2023-05-10T03:47:52;22.10;56.90
51815;DHT22;37874;53.158;6.766;2023-05-10T03:50:18;22.10;56.90
51815;DHT22;37874;53.158;6.766;2023-05-10T03:52:44;22.20;56.90
51815;DHT22;37874;53.158;6.766;2023-05-10T03:55:10;22.10;56.90
51815;DHT22;37874;53.158;6.766;2023-05-10T03:57:36;22.10;56.90
51815;DHT22;37874;53.158;6.766;2023-05-10T04:00:03;22.10;57.00
51815;DHT22;37874;53.158;6.766;2023-05-10T04:02:28;22.10;56.90
51815;DHT22;37874;53.158;6.766;2023-05-10T04:04:55;22.20;57.00
51815;DHT22;37874;53.158;6.766;2023-05-10T04:07:21;22.10;56.90
51815;DHT22;37874;53.158;6.766;2023-05-10T04:09:47;22.10;56.90
51815;DHT22;37874;53.158;6.766;2023-05-10T04:12:12;22.10;56.90
51815;DHT22;37874;53.158;6.766;2023-05-10T04:14:38;22.20;57.00
51815;DHT22;37874;53.158;6.766;2023-05-10T04:17:04;22.10;56.90
51815;DHT22;37874;53.158;6.766;2023-05-10T04:19:32;22.10;56.90
51815;DHT22;37874;53.158;6.766;2023-05-10T04:21:58;22.10;57.00
51815;DHT22;37874;53.158;6.766;2023-05-10T04:24:24;22.10;56.90
51815;DHT22;37874;53.158;6.766;2023-05-10T04:26:50;22.10;56.80
51815;DHT22;37874;53.158;6.766;2023-05-10T04:29:16;22.10;56.80
51815;DHT22;37874;53.158;6.766;2023-05-10T04:31:42;22.10;56.70
51815;DHT22;37874;53.158;6.766;2023-05-10T04:34:07;22.10;56.80
51815;DHT22;37874;53.158;6.766;2023-05-10T04:36:33;22.10;56.80
51815;DHT22;37874;53.158;6.766;2023-05-10T04:39:01;22.10;56.80
51815;DHT22;37874;53.158;6.766;2023-05-10T04:41:28;22.10;56.70
51815;DHT22;37874;53.158;6.766;2023-05-10T04:43:54;22.10;56.70
51815;DHT22;37874;53.158;6.766;2023-05-10T04:46:20;22.10;56.70
51815;DHT22;37874;53.158;6.766;2023-05-10T04:48:45;22.10;56.70
51815;DHT22;37874;53.158;6.766;2023-05-10T04:51:11;22.10;56.70
51815;DHT22;37874;53.158;6.766;2023-05-10T04:53:37;22.00;56.70
51815;DHT22;37874;53.158;6.766;2023-05-10T04:56:03;22.00;56.70
51815;DHT22;37874;53.158;6.766;2023-05-10T04:58:29;22.00;56.70
51815;DHT22;37874;53.158;6.766;2023-05-10T05:00:54;22.00;56.60
51815;DHT22;37874;53.158;6.766;2023-05-10T05:03:20;22.00;56.50
51815;DHT22;37874;53.158;6.766;2023-05-10T05:05:45;22.00;56.50
51815;DHT22;37874;53.158;6.766;2023-05-10T05:08:11;22.00;56.50
51815;DHT22;37874;53.158;6.766;2023-05-10T05:10:37;22.00;56.40
51815;DHT22;37874;53.158;6.766;2023-05-10T05:13:02;22.10;56.60
51815;DHT22;37874;53.158;6.766;2023-05-10T05:15:28;22.00;56.50
51815;DHT22;37874;53.158;6.766;2023-05-10T05:17:53;21.90;56.50
51815;DHT22;37874;53.158;6.766;2023-05-10T05:20:19;22.00;56.50
51815;DHT22;37874;53.158;6.766;2023-05-10T05:22:45;22.00;56.40
51815;DHT22;37874;53.158;6.766;2023-05-10T05:25:10;22.00;56.40
51815;DHT22;37874;53.158;6.766;2023-05-10T05:27:37;22.00;56.40
51815;DHT22;37874;53.158;6.766;2023-05-10T05:30:02;22.00;56.40
51815;DHT22;37874;53.158;6.766;2023-05-10T05:32:29;22.00;56.60
51815;DHT22;37874;53.158;6.766;2023-05-10T05:34:55;22.00;56.40
51815;DHT22;37874;53.158;6.766;2023-05-10T05:37:20;22.00;56.30
51815;DHT22;37874;53.158;6.766;2023-05-10T05:39:47;22.00;56.30
51815;DHT22;37874;53.158;6.766;2023-05-10T05:42:13;21.90;56.30
51815;DHT22;37874;53.158;6.766;2023-05-10T05:44:39;22.00;56.30
51815;DHT22;37874;53.158;6.766;2023-05-10T05:47:05;22.00;56.30
51815;DHT22;37874;53.158;6.766;2023-05-10T05:49:32;22.00;56.20
51815;DHT22;37874;53.158;6.766;2023-05-10T05:52:02;22.00;56.30
51815;DHT22;37874;53.158;6.766;2023-05-10T05:54:27;22.00;56.30
51815;DHT22;37874;53.158;6.766;2023-05-10T05:56:54;21.90;56.10
51815;DHT22;37874;53.158;6.766;2023-05-10T05:59:21;21.90;56.20
51815;DHT22;37874;53.158;6.766;2023-05-10T06:01:47;21.90;56.20
51815;DHT22;37874;53.158;6.766;2023-05-10T06:04:12;21.90;56.20
51815;DHT22;37874;53.158;6.766;2023-05-10T06:06:38;21.90;56.20
51815;DHT22;37874;53.158;6.766;2023-05-10T06:09:04;21.90;56.30
51815;DHT22;37874;53.158;6.766;2023-05-10T06:11:29;22.00;56.30
51815;DHT22;37874;53.158;6.766;2023-05-10T06:13:57;21.90;56.40
51815;DHT22;37874;53.158;6.766;2023-05-10T06:16:23;21.90;56.40
51815;DHT22;37874;53.158;6.766;2023-05-10T06:18:49;21.90;56.40
51815;DHT22;37874;53.158;6.766;2023-05-10T06:21:14;21.90;56.40
51815;DHT22;37874;53.158;6.766;2023-05-10T06:23:41;21.90;56.40
51815;DHT22;37874;53.158;6.766;2023-05-10T06:26:07;21.90;56.40
51815;DHT22;37874;53.158;6.766;2023-05-10T06:28:32;21.90;56.30
51815;DHT22;37874;53.158;6.766;2023-05-10T06:30:59;21.90;56.80
51815;DHT22;37874;53.158;6.766;2023-05-10T06:33:24;21.90;56.30
51815;DHT22;37874;53.158;6.766;2023-05-10T06:35:50;21.90;56.30
51815;DHT22;37874;53.158;6.766;2023-05-10T06:38:15;22.00;56.20
51815;DHT22;37874;53.158;6.766;2023-05-10T06:40:42;21.90;56.20
51815;DHT22;37874;53.158;6.766;2023-05-10T06:43:07;21.90;56.10
51815;DHT22;37874;53.158;6.766;2023-05-10T06:45:33;21.90;56.20
51815;DHT22;37874;53.158;6.766;2023-05-10T06:47:58;21.90;56.10
51815;DHT22;37874;53.158;6.766;2023-05-10T06:50:25;21.90;56.10
51815;DHT22;37874;53.158;6.766;2023-05-10T06:52:50;21.90;56.10
51815;DHT22;37874;53.158;6.766;2023-05-10T06:55:16;21.90;56.10
51815;DHT22;37874;53.158;6.766;2023-05-10T06:57:41;21.90;56.20
51815;DHT22;37874;53.158;6.766;2023-05-10T07:00:07;21.90;56.80
51815;DHT22;37874;53.158;6.766;2023-05-10T07:02:35;21.90;56.10
51815;DHT22;37874;53.158;6.766;2023-05-10T07:05:00;21.90;56.10
51815;DHT22;37874;53.158;6.766;2023-05-10T07:07:27;21.90;56.10
51815;DHT22;37874;53.158;6.766;2023-05-10T07:09:53;21.90;56.00
51815;DHT22;37874;53.158;6.766;2023-05-10T07:12:18;21.90;56.10
51815;DHT22;37874;53.158;6.766;2023-05-10T07:14:44;21.80;56.10
51815;DHT22;37874;53.158;6.766;2023-05-10T07:17:10;21.80;56.10
51815;DHT22;37874;53.158;6.766;2023-05-10T07:19:36;21.80;56.20
51815;DHT22;37874;53.158;6.766;2023-05-10T07:22:01;21.90;56.20
51815;DHT22;37874;53.158;6.766;2023-05-10T07:24:27;21.90;56.80
51815;DHT22;37874;53.158;6.766;2023-05-10T07:26:52;21.80;56.20
51815;DHT22;37874;53.158;6.766;2023-05-10T07:29:18;21.90;56.30
51815;DHT22;37874;53.158;6.766;2023-05-10T07:31:44;21.90;56.30
51815;DHT22;37874;53.158;6.766;2023-05-10T07:34:09;21.90;56.20
51815;DHT22;37874;53.158;6.766;2023-05-10T07:36:35;21.90;56.10
51815;DHT22;37874;53.158;6.766;2023-05-10T07:39:01;21.90;56.00
51815;DHT22;37874;53.158;6.766;2023-05-10T07:41:26;21.90;56.10
51815;DHT22;37874;53.158;6.766;2023-05-10T07:43:52;21.90;56.10
51815;DHT22;37874;53.158;6.766;2023-05-10T07:46:18;21.90;56.20
51815;DHT22;37874;53.158;6.766;2023-05-10T07:48:45;21.90;56.20
51815;DHT22;37874;53.158;6.766;2023-05-10T07:51:11;21.90;56.20
51815;DHT22;37874;53.158;6.766;2023-05-10T07:53:37;21.90;56.20
51815;DHT22;37874;53.158;6.766;2023-05-10T07:56:24;21.90;56.10
51815;DHT22;37874;53.158;6.766;2023-05-10T07:58:51;21.90;56.10
51815;DHT22;37874;53.158;6.766;2023-05-10T08:01:17;21.90;56.10
51815;DHT22;37874;53.158;6.766;2023-05-10T08:03:43;21.90;56.10
51815;DHT22;37874;53.158;6.766;2023-05-10T08:06:08;21.90;56.10
51815;DHT22;37874;53.158;6.766;2023-05-10T08:08:34;22.00;56.10
51815;DHT22;37874;53.158;6.766;2023-05-10T08:10:59;21.90;56.00
51815;DHT22;37874;53.158;6.766;2023-05-10T08:13:25;22.10;56.00
51815;DHT22;37874;53.158;6.766;2023-05-10T08:15:51;22.00;56.00
51815;DHT22;37874;53.158;6.766;2023-05-10T08:18:18;22.00;56.00
51815;DHT22;37874;53.158;6.766;2023-05-10T08:20:44;22.00;55.90
51815;DHT22;37874;53.158;6.766;2023-05-10T08:23:11;22.00;56.00
51815;DHT22;37874;53.158;6.766;2023-05-10T08:25:37;22.00;56.10
51815;DHT22;37874;53.158;6.766;2023-05-10T08:28:03;22.00;56.00
51815;DHT22;37874;53.158;6.766;2023-05-10T08:30:28;22.00;56.00
51815;DHT22;37874;53.158;6.766;2023-05-10T08:32:54;22.00;56.10
51815;DHT22;37874;53.158;6.766;2023-05-10T08:35:19;22.00;56.10
51815;DHT22;37874;53.158;6.766;2023-05-10T08:37:45;22.00;56.10
51815;DHT22;37874;53.158;6.766;2023-05-10T08:40:11;22.00;56.10
51815;DHT22;37874;53.158;6.766;2023-05-10T08:42:40;22.00;56.20
51815;DHT22;37874;53.158;6.766;2023-05-10T08:45:08;22.00;56.10
51815;DHT22;37874;53.158;6.766;2023-05-10T08:47:36;21.90;56.10
51815;DHT22;37874;53.158;6.766;2023-05-10T08:50:03;22.00;56.20
51815;DHT22;37874;53.158;6.766;2023-05-10T08:52:30;22.00;56.20
51815;DHT22;37874;53.158;6.766;2023-05-10T08:54:58;22.00;56.20
51815;DHT22;37874;53.158;6.766;2023-05-10T08:57:24;22.00;56.20
51815;DHT22;37874;53.158;6.766;2023-05-10T08:59:50;22.00;56.20
51815;DHT22;37874;53.158;6.766;2023-05-10T09:02:16;22.00;56.20
51815;DHT22;37874;53.158;6.766;2023-05-10T09:04:43;22.00;56.30
51815;DHT22;37874;53.158;6.766;2023-05-10T09:07:10;22.00;56.40
51815;DHT22;37874;53.158;6.766;2023-05-10T09:09:36;22.00;56.40
51815;DHT22;37874;53.158;6.766;2023-05-10T09:12:02;22.00;56.40
51815;DHT22;37874;53.158;6.766;2023-05-10T09:14:29;22.00;56.40
51815;DHT22;37874;53.158;6.766;2023-05-10T09:16:54;22.00;56.40
51815;DHT22;37874;53.158;6.766;2023-05-10T09:19:20;22.10;56.40
51815;DHT22;37874;53.158;6.766;2023-05-10T09:21:46;22.00;56.30
51815;DHT22;37874;53.158;6.766;2023-05-10T09:24:12;22.10;56.20
51815;DHT22;37874;53.158;6.766;2023-05-10T09:26:48;22.10;56.30
51815;DHT22;37874;53.158;6.766;2023-05-10T09:29:14;22.10;56.20
51815;DHT22;37874;53.158;6.766;2023-05-10T09:31:58;22.10;56.20
51815;DHT22;37874;53.158;6.766;2023-05-10T09:34:31;22.10;56.20
51815;DHT22;37874;53.158;6.766;2023-05-10T09:37:01;22.20;56.30
51815;DHT22;37874;53.158;6.766;2023-05-10T09:39:35;22.20;56.20
51815;DHT22;37874;53.158;6.766;2023-05-10T09:42:06;22.20;56.10
51815;DHT22;37874;53.158;6.766;2023-05-10T09:44:35;22.10;56.00
51815;DHT22;37874;53.158;6.766;2023-05-10T09:47:01;22.20;56.20
51815;DHT22;37874;53.158;6.766;2023-05-10T09:49:27;22.20;56.10
51815;DHT22;37874;53.158;6.766;2023-05-10T09:52:07;22.20;56.20
51815;DHT22;37874;53.158;6.766;2023-05-10T09:54:33;22.20;56.20
51815;DHT22;37874;53.158;6.766;2023-05-10T09:57:00;22.20;56.20
51815;DHT22;37874;53.158;6.766;2023-05-10T09:59:26;22.20;56.30
51815;DHT22;37874;53.158;6.766;2023-05-10T10:01:56;22.30;56.30
51815;DHT22;37874;53.158;6.766;2023-05-10T10:04:22;22.30;56.10
51815;DHT22;37874;53.158;6.766;2023-05-10T10:06:59;22.40;56.10
51815;DHT22;37874;53.158;6.766;2023-05-10T10:09:26;22.30;56.00
51815;DHT22;37874;53.158;6.766;2023-05-10T10:11:52;22.40;55.90
51815;DHT22;37874;53.158;6.766;2023-05-10T10:14:22;22.40;55.70
51815;DHT22;37874;53.158;6.766;2023-05-10T10:16:49;22.40;55.70
51815;DHT22;37874;53.158;6.766;2023-05-10T10:19:16;22.50;55.60
51815;DHT22;37874;53.158;6.766;2023-05-10T10:21:42;22.50;55.60
51815;DHT22;37874;53.158;6.766;2023-05-10T10:24:07;22.50;55.50
51815;DHT22;37874;53.158;6.766;2023-05-10T10:26:35;22.60;56.00
51815;DHT22;37874;53.158;6.766;2023-05-10T10:29:25;22.60;55.60
51815;DHT22;37874;53.158;6.766;2023-05-10T10:32:03;22.60;58.00
51815;DHT22;37874;53.158;6.766;2023-05-10T10:34:32;22.50;58.70
51815;DHT22;37874;53.158;6.766;2023-05-10T10:36:58;22.50;60.40
51815;DHT22;37874;53.158;6.766;2023-05-10T10:39:28;22.40;61.20
51815;DHT22;37874;53.158;6.766;2023-05-10T10:41:56;22.30;61.30
51815;DHT22;37874;53.158;6.766;2023-05-10T10:49:50;21.90;62.90
51815;DHT22;37874;53.158;6.766;2023-05-10T10:52:23;21.80;63.00
51815;DHT22;37874;53.158;6.766;2023-05-10T10:57:33;21.70;63.90
51815;DHT22;37874;53.158;6.766;2023-05-10T11:00:19;21.70;63.90
51815;DHT22;37874;53.158;6.766;2023-05-10T11:03:11;21.60;64.00
51815;DHT22;37874;53.158;6.766;2023-05-10T11:05:43;21.60;64.40
51815;DHT22;37874;53.158;6.766;2023-05-10T11:08:29;21.60;65.10
51815;DHT22;37874;53.158;6.766;2023-05-10T11:13:37;21.60;67.40
51815;DHT22;37874;53.158;6.766;2023-05-10T11:16:23;21.60;67.90
51815;DHT22;37874;53.158;6.766;2023-05-10T11:19:07;21.40;67.70
51815;DHT22;37874;53.158;6.766;2023-05-10T11:21:34;21.50;67.70
51815;DHT22;37874;53.158;6.766;2023-05-10T11:24:14;21.40;67.70
51815;DHT22;37874;53.158;6.766;2023-05-10T11:26:40;21.30;67.80
51815;DHT22;37874;53.158;6.766;2023-05-10T11:29:06;21.30;67.90
51815;DHT22;37874;53.158;6.766;2023-05-10T11:31:32;21.30;67.90
51815;DHT22;37874;53.158;6.766;2023-05-10T11:33:59;21.30;67.90
51815;DHT22;37874;53.158;6.766;2023-05-10T13:34:35;21.80;63.20
51815;DHT22;37874;53.158;6.766;2023-05-10T13:37:01;21.80;62.90
51815;DHT22;37874;53.158;6.766;2023-05-10T13:39:27;21.80;62.80
51815;DHT22;37874;53.158;6.766;2023-05-10T13:41:52;21.80;62.70
51815;DHT22;37874;53.158;6.766;2023-05-10T13:44:19;21.80;62.70
51815;DHT22;37874;53.158;6.766;2023-05-10T13:46:45;21.80;62.40
51815;DHT22;37874;53.158;6.766;2023-05-10T13:49:11;21.70;62.40
51815;DHT22;37874;53.158;6.766;2023-05-10T13:51:37;21.80;62.50
51815;DHT22;37874;53.158;6.766;2023-05-10T13:54:03;21.80;62.40
51815;DHT22;37874;53.158;6.766;2023-05-10T13:56:28;21.80;62.30
51815;DHT22;37874;53.158;6.766;2023-05-10T13:58:55;21.80;62.40
51815;DHT22;37874;53.158;6.766;2023-05-10T14:01:22;21.80;62.30
51815;DHT22;37874;53.158;6.766;2023-05-10T14:03:47;21.80;62.30
51815;DHT22;37874;53.158;6.766;2023-05-10T14:06:13;21.30;62.00
51815;DHT22;37874;53.158;6.766;2023-05-10T14:08:39;21.80;62.30
51815;DHT22;37874;53.158;6.766;2023-05-10T14:11:05;21.80;62.30
51815;DHT22;37874;53.158;6.766;2023-05-10T14:13:31;21.70;62.10
51815;DHT22;37874;53.158;6.766;2023-05-10T14:15:56;21.70;62.10
51815;DHT22;37874;53.158;6.766;2023-05-10T14:18:22;21.70;62.10
51815;DHT22;37874;53.158;6.766;2023-05-10T14:20:47;21.70;62.10
51815;DHT22;37874;53.158;6.766;2023-05-10T14:23:13;21.70;62.60
51815;DHT22;37874;53.158;6.766;2023-05-10T14:25:42;21.70;61.80
51815;DHT22;37874;53.158;6.766;2023-05-10T14:28:07;21.70;61.80
51815;DHT22;37874;53.158;6.766;2023-05-10T14:30:33;21.80;61.70
51815;DHT22;37874;53.158;6.766;2023-05-10T14:33:02;21.80;61.70
51815;DHT22;37874;53.158;6.766;2023-05-10T14:35:28;21.80;61.60
51815;DHT22;37874;53.158;6.766;2023-05-10T14:37:56;21.80;61.60
51815;DHT22;37874;53.158;6.766;2023-05-10T14:40:21;21.90;61.50
51815;DHT22;37874;53.158;6.766;2023-05-10T14:42:48;21.90;61.50
51815;DHT22;37874;53.158;6.766;2023-05-10T14:45:13;21.80;62.00
51815;DHT22;37874;53.158;6.766;2023-05-10T14:47:39;21.80;61.20
51815;DHT22;37874;53.158;6.766;2023-05-10T14:50:05;21.70;61.10
51815;DHT22;37874;53.158;6.766;2023-05-10T14:52:31;21.80;61.10
51815;DHT22;37874;53.158;6.766;2023-05-10T16:52:45;22.40;57.80
51815;DHT22;37874;53.158;6.766;2023-05-10T16:55:10;22.40;57.90
51815;DHT22;37874;53.158;6.766;2023-05-10T16:57:36;22.40;57.90
51815;DHT22;37874;53.158;6.766;2023-05-10T17:00:02;22.30;57.90
51815;DHT22;37874;53.158;6.766;2023-05-10T17:02:28;22.30;57.90
51815;DHT22;37874;53.158;6.766;2023-05-10T17:04:54;22.30;58.10
51815;DHT22;37874;53.158;6.766;2023-05-10T17:07:20;22.30;58.10
51815;DHT22;37874;53.158;6.766;2023-05-10T17:09:46;22.20;58.10
51815;DHT22;37874;53.158;6.766;2023-05-10T17:12:12;22.20;58.70
51815;DHT22;37874;53.158;6.766;2023-05-10T17:14:37;22.20;58.20
51815;DHT22;37874;53.158;6.766;2023-05-10T17:17:03;22.20;58.20
51815;DHT22;37874;53.158;6.766;2023-05-10T17:19:29;22.20;58.20
51815;DHT22;37874;53.158;6.766;2023-05-10T17:21:55;22.20;58.30
51815;DHT22;37874;53.158;6.766;2023-05-10T17:24:20;22.10;58.20
51815;DHT22;37874;53.158;6.766;2023-05-10T17:26:46;22.20;58.30
51815;DHT22;37874;53.158;6.766;2023-05-10T17:29:11;22.20;58.30
51815;DHT22;37874;53.158;6.766;2023-05-10T17:31:39;22.20;58.30
51815;DHT22;37874;53.158;6.766;2023-05-10T17:34:04;22.20;58.30
51815;DHT22;37874;53.158;6.766;2023-05-10T17:36:30;22.00;58.20
51815;DHT22;37874;53.158;6.766;2023-05-10T17:38:56;22.10;58.20
51815;DHT22;37874;53.158;6.766;2023-05-10T17:41:22;22.20;58.30
51815;DHT22;37874;53.158;6.766;2023-05-10T17:43:48;22.10;58.30
51815;DHT22;37874;53.158;6.766;2023-05-10T19:44:22;21.90;58.10
51815;DHT22;37874;53.158;6.766;2023-05-10T19:46:47;22.00;59.10
51815;DHT22;37874;53.158;6.766;2023-05-10T19:49:13;22.10;60.20
51815;DHT22;37874;53.158;6.766;2023-05-10T19:51:38;22.00;58.90
51815;DHT22;37874;53.158;6.766;2023-05-10T19:54:04;22.10;58.40
51815;DHT22;37874;53.158;6.766;2023-05-10T19:56:30;22.00;58.70
51815;DHT22;37874;53.158;6.766;2023-05-10T19:58:55;22.10;58.00
51815;DHT22;37874;53.158;6.766;2023-05-10T20:01:21;22.00;57.80
51815;DHT22;37874;53.158;6.766;2023-05-10T20:03:46;22.00;57.80
51815;DHT22;37874;53.158;6.766;2023-05-10T20:06:12;22.00;57.70
51815;DHT22;37874;53.158;6.766;2023-05-10T20:08:38;22.00;57.60
51815;DHT22;37874;53.158;6.766;2023-05-10T20:11:03;21.90;57.60
51815;DHT22;37874;53.158;6.766;2023-05-10T20:13:29;21.90;57.60
51815;DHT22;37874;53.158;6.766;2023-05-10T20:15:58;21.90;57.70
51815;DHT22;37874;53.158;6.766;2023-05-10T20:18:24;21.90;57.70
51815;DHT22;37874;53.158;6.766;2023-05-10T20:20:54;21.90;57.70
51815;DHT22;37874;53.158;6.766;2023-05-10T20:23:20;21.90;57.70
51815;DHT22;37874;53.158;6.766;2023-05-10T20:25:46;21.90;57.80
51815;DHT22;37874;53.158;6.766;2023-05-10T20:28:12;21.90;57.80
51815;DHT22;37874;53.158;6.766;2023-05-10T20:30:38;21.80;57.70
51815;DHT22;37874;53.158;6.766;2023-05-10T20:33:03;21.80;57.60
51815;DHT22;37874;53.158;6.766;2023-05-10T20:35:30;21.80;57.70
51815;DHT22;37874;53.158;6.766;2023-05-10T20:37:56;21.80;57.80
51815;DHT22;37874;53.158;6.766;2023-05-10T20:40:22;21.80;57.80
51815;DHT22;37874;53.158;6.766;2023-05-10T20:42:47;21.80;57.90
51815;DHT22;37874;53.158;6.766;2023-05-10T20:45:14;21.80;57.80
51815;DHT22;37874;53.158;6.766;2023-05-10T20:47:40;21.80;57.90
51815;DHT22;37874;53.158;6.766;2023-05-10T20:50:06;21.80;58.00
51815;DHT22;37874;53.158;6.766;2023-05-10T20:52:31;21.80;57.90
51815;DHT22;37874;53.158;6.766;2023-05-10T20:54:57;21.80;58.00
51815;DHT22;37874;53.158;6.766;2023-05-10T20:57:23;21.80;58.00
51815;DHT22;37874;53.158;6.766;2023-05-10T20:59:49;21.80;57.90
51815;DHT22;37874;53.158;6.766;2023-05-10T21:02:15;21.80;58.00
51815;DHT22;37874;53.158;6.766;2023-05-10T21:04:41;21.80;58.00
51815;DHT22;37874;53.158;6.766;2023-05-10T21:07:06;21.80;57.90
51815;DHT22;37874;53.158;6.766;2023-05-10T21:09:32;21.70;58.00
51815;DHT22;37874;53.158;6.766;2023-05-10T21:11:59;21.70;58.00
51815;DHT22;37874;53.158;6.766;2023-05-10T21:14:27;21.70;58.00
51815;DHT22;37874;53.158;6.766;2023-05-10T21:16:53;21.70;58.10
51815;DHT22;37874;53.158;6.766;2023-05-10T21:19:19;21.70;58.10
51815;DHT22;37874;53.158;6.766;2023-05-10T21:21:44;21.70;58.20
51815;DHT22;37874;53.158;6.766;2023-05-10T21:24:10;21.70;58.20
51815;DHT22;37874;53.158;6.766;2023-05-10T21:26:36;21.70;58.20
51815;DHT22;37874;53.158;6.766;2023-05-10T21:29:02;21.70;58.20
51815;DHT22;37874;53.158;6.766;2023-05-10T21:31:29;21.70;58.30
51815;DHT22;37874;53.158;6.766;2023-05-10T21:33:56;21.70;58.30
51815;DHT22;37874;53.158;6.766;2023-05-10T21:36:22;21.70;58.30
51815;DHT22;37874;53.158;6.766;2023-05-10T21:38:47;21.70;58.40
51815;DHT22;37874;53.158;6.766;2023-05-10T21:41:15;21.60;58.30
51815;DHT22;37874;53.158;6.766;2023-05-10T21:43:41;21.70;58.30
51815;DHT22;37874;53.158;6.766;2023-05-10T21:46:07;21.70;58.20
51815;DHT22;37874;53.158;6.766;2023-05-10T21:48:33;21.60;58.30
51815;DHT22;37874;53.158;6.766;2023-05-10T21:50:59;21.70;58.90
51815;DHT22;37874;53.158;6.766;2023-05-10T21:53:26;21.60;58.30
51815;DHT22;37874;53.158;6.766;2023-05-10T21:55:53;21.60;58.30
51815;DHT22;37874;53.158;6.766;2023-05-10T21:58:20;21.50;58.30
51815;DHT22;37874;53.158;6.766;2023-05-10T22:00:46;21.60;58.40
51815;DHT22;37874;53.158;6.766;2023-05-10T22:03:12;21.60;58.40
51815;DHT22;37874;53.158;6.766;2023-05-10T22:05:37;21.60;58.40
51815;DHT22;37874;53.158;6.766;2023-05-10T22:08:04;21.60;58.40
51815;DHT22;37874;53.158;6.766;2023-05-10T22:10:30;21.60;58.30
51815;DHT22;37874;53.158;6.766;2023-05-10T22:12:56;21.50;58.30
51815;DHT22;37874;53.158;6.766;2023-05-10T22:15:21;21.60;58.50
51815;DHT22;37874;53.158;6.766;2023-05-10T22:17:47;21.60;58.40
51815;DHT22;37874;53.158;6.766;2023-05-10T22:20:12;21.60;58.30
51815;DHT22;37874;53.158;6.766;2023-05-10T22:22:38;21.60;58.40
51815;DHT22;37874;53.158;6.766;2023-05-10T22:25:07;21.60;58.40
51815;DHT22;37874;53.158;6.766;2023-05-10T22:27:33;21.60;58.40
51815;DHT22;37874;53.158;6.766;2023-05-10T22:29:58;21.50;58.40
51815;DHT22;37874;53.158;6.766;2023-05-10T22:32:24;21.60;58.40
51815;DHT22;37874;53.158;6.766;2023-05-10T22:34:49;21.60;58.50
51815;DHT22;37874;53.158;6.766;2023-05-10T22:37:15;21.60;58.50
51815;DHT22;37874;53.158;6.766;2023-05-10T22:39:44;21.60;58.50
51815;DHT22;37874;53.158;6.766;2023-05-10T22:42:09;21.60;58.40
51815;DHT22;37874;53.158;6.766;2023-05-10T22:44:35;21.60;58.40
51815;DHT22;37874;53.158;6.766;2023-05-10T22:47:00;21.60;58.40
51815;DHT22;37874;53.158;6.766;2023-05-10T22:49:26;21.60;58.40
51815;DHT22;37874;53.158;6.766;2023-05-10T22:51:53;21.50;58.40
51815;DHT22;37874;53.158;6.766;2023-05-10T22:54:18;21.50;58.30
51815;DHT22;37874;53.158;6.766;2023-05-10T22:56:44;21.50;58.40
51815;DHT22;37874;53.158;6.766;2023-05-10T22:59:09;21.50;58.30
51815;DHT22;37874;53.158;6.766;2023-05-10T23:01:35;21.50;58.30
51815;DHT22;37874;53.158;6.766;2023-05-10T23:04:01;21.60;58.40
51815;DHT22;37874;53.158;6.766;2023-05-10T23:06:26;21.50;58.40